createdAt,value
2022-10-17T00:00:14.107Z,39.85
2022-10-17T00:00:36.999Z,41.70
2022-10-17T00:00:59.691Z,42.08
2022-10-17T00:01:22.467Z,41.95
2022-10-17T00:01:45.370Z,42.17
2022-10-17T00:02:08.501Z,43.25
2022-10-17T00:02:34.140Z,43.22
2022-10-17T00:02:56.981Z,44.25
2022-10-17T00:03:19.801Z,41.27
2022-10-17T00:03:42.550Z,37.45
2022-10-17T00:04:05.340Z,40.38
2022-10-17T00:04:29.125Z,40.53
2022-10-17T00:04:51.902Z,42.13
2022-10-17T00:05:14.651Z,40.72
2022-10-17T00:05:40.281Z,43.42
2022-10-17T00:06:06.197Z,42.53
2022-10-17T00:06:29.241Z,42.10
2022-10-17T00:06:51.961Z,40.05
2022-10-17T00:07:14.735Z,38.22
2022-10-17T00:07:37.480Z,39.50
2022-10-17T00:08:00.241Z,40.53
2022-10-17T00:08:23.190Z,42.03
2022-10-17T00:08:45.916Z,40.72
2022-10-17T00:09:09.771Z,39.28
2022-10-17T00:09:32.439Z,40.70
2022-10-17T00:09:55.341Z,43.33
2022-10-17T00:10:18.157Z,46.35
2022-10-17T00:10:41.060Z,43.28
2022-10-17T00:11:05.695Z,37.90
2022-10-17T00:11:28.476Z,39.47
2022-10-17T00:11:51.202Z,37.80
2022-10-17T00:12:15.417Z,40.72
2022-10-17T00:12:38.197Z,40.65
2022-10-17T00:13:00.978Z,41.08
2022-10-17T00:13:23.736Z,39.50
2022-10-17T00:13:46.888Z,41.00
2022-10-17T00:14:09.692Z,42.55
2022-10-17T00:14:32.448Z,42.70
2022-10-17T00:14:55.202Z,40.72
2022-10-17T00:15:19.036Z,42.03
2022-10-17T00:15:44.488Z,40.35
2022-10-17T00:16:08.293Z,42.85
2022-10-17T00:16:32.644Z,36.97
2022-10-17T00:16:55.355Z,38.70
2022-10-17T00:17:18.020Z,39.15
2022-10-17T00:17:42.235Z,40.47
2022-10-17T00:18:04.935Z,40.25
2022-10-17T00:18:27.732Z,42.30
2022-10-17T00:18:50.419Z,42.05
2022-10-17T00:19:13.099Z,39.58
2022-10-17T00:19:35.798Z,42.63
2022-10-17T00:19:59.543Z,40.65
2022-10-17T00:20:22.246Z,41.33
2022-10-17T00:20:44.982Z,41.53
2022-10-17T00:21:14.651Z,44.47
2022-10-17T00:21:37.531Z,39.60
2022-10-17T00:22:00.201Z,44.05
2022-10-17T00:22:22.943Z,45.60
2022-10-17T00:22:45.934Z,42.08
2022-10-17T00:23:08.809Z,40.50
2022-10-17T00:23:31.533Z,40.53
2022-10-17T00:23:54.564Z,44.35
2022-10-17T00:24:17.367Z,43.58
2022-10-17T00:24:40.163Z,42.67
2022-10-17T00:25:02.903Z,45.92
2022-10-17T00:25:25.615Z,40.13
2022-10-17T00:25:48.334Z,41.35
2022-10-17T00:26:11.098Z,44.47
2022-10-17T00:26:33.973Z,45.63
2022-10-17T00:26:56.776Z,44.88
2022-10-17T00:27:20.829Z,42.25
2022-10-17T00:27:43.520Z,41.40
2022-10-17T00:28:06.377Z,41.15
2022-10-17T00:28:31.587Z,43.13
2022-10-17T00:28:54.604Z,42.28
2022-10-17T00:29:17.343Z,43.40
2022-10-17T00:29:40.082Z,43.15
2022-10-17T00:30:02.903Z,43.63
2022-10-17T00:30:25.567Z,43.67
2022-10-17T00:30:55.295Z,44.10
2022-10-17T00:31:18.478Z,46.25
2022-10-17T00:31:42.320Z,44.20
2022-10-17T00:32:05.595Z,45.97
2022-10-17T00:32:28.653Z,49.13
2022-10-17T00:32:51.724Z,47.45
2022-10-17T00:33:14.391Z,49.05
2022-10-17T00:33:37.333Z,46.97
2022-10-17T00:34:00.109Z,48.83
2022-10-17T00:34:22.869Z,47.05
2022-10-17T00:34:45.588Z,49.92
2022-10-17T00:35:11.318Z,49.40
2022-10-17T00:35:34.228Z,47.50
2022-10-17T00:36:06.410Z,48.55
2022-10-17T00:36:29.291Z,53.08
2022-10-17T00:36:52.013Z,54.30
2022-10-17T00:37:14.750Z,50.97
2022-10-17T00:37:37.451Z,50.88
2022-10-17T00:38:00.183Z,52.10
2022-10-17T00:38:22.885Z,52.45
2022-10-17T00:38:47.076Z,49.90
2022-10-17T00:39:09.923Z,48.42
2022-10-17T00:39:32.971Z,54.20
2022-10-17T00:39:55.727Z,51.03
2022-10-17T00:40:18.475Z,50.13
2022-10-17T00:40:41.215Z,49.83
2022-10-17T00:41:04.302Z,51.92
2022-10-17T00:41:28.625Z,54.53
2022-10-17T00:41:51.356Z,53.97
2022-10-17T00:42:14.062Z,54.67
2022-10-17T00:42:38.220Z,53.25
2022-10-17T00:43:00.949Z,53.55
2022-10-17T00:43:23.660Z,53.72
2022-10-17T00:43:54.236Z,53.33
2022-10-17T00:45:04.387Z,55.13
2022-10-17T00:45:27.770Z,54.38
2022-10-17T00:45:50.429Z,55.67
2022-10-17T00:46:13.225Z,53.03
2022-10-17T00:46:37.735Z,52.88
2022-10-17T00:47:02.060Z,53.35
2022-10-17T00:47:24.940Z,51.90
2022-10-17T00:47:49.235Z,53.22
2022-10-17T00:48:12.010Z,52.35
2022-10-17T00:48:34.793Z,53.40
2022-10-17T00:48:58.560Z,54.85
2022-10-17T00:49:21.345Z,50.58
2022-10-17T00:49:44.179Z,50.58
2022-10-17T00:50:07.276Z,52.35
2022-10-17T00:50:30.141Z,50.78
2022-10-17T00:50:52.869Z,53.33
2022-10-17T00:51:15.719Z,54.22
2022-10-17T00:51:41.203Z,50.50
2022-10-17T00:52:04.973Z,52.72
2022-10-17T00:52:28.745Z,54.10
2022-10-17T00:52:51.788Z,49.70
2022-10-17T00:53:14.593Z,49.95
2022-10-17T00:53:37.699Z,49.88
2022-10-17T00:54:00.506Z,52.63
2022-10-17T00:54:24.648Z,51.55
2022-10-17T00:54:49.602Z,49.90
2022-10-17T00:55:15.352Z,49.70
2022-10-17T00:55:39.584Z,56.33
2022-10-17T00:56:02.293Z,55.75
2022-10-17T00:56:27.644Z,50.72
2022-10-17T00:56:50.319Z,50.70
2022-10-17T00:57:14.076Z,54.90
2022-10-17T00:57:38.363Z,52.03
2022-10-17T00:58:02.242Z,50.85
2022-10-17T00:58:25.057Z,54.45
2022-10-17T00:58:47.719Z,52.00
2022-10-17T00:59:11.074Z,52.80
2022-10-17T00:59:33.886Z,52.65
2022-10-17T00:59:56.633Z,53.53
2022-10-17T01:00:19.435Z,53.08
2022-10-17T01:00:42.723Z,57.05
2022-10-17T01:01:05.788Z,59.80
2022-10-17T01:01:28.534Z,59.45
2022-10-17T01:01:54.323Z,56.80
2022-10-17T01:02:18.856Z,61.60
2022-10-17T01:02:41.670Z,56.70
2022-10-17T01:03:04.493Z,54.38
2022-10-17T01:03:27.434Z,58.10
2022-10-17T01:03:50.041Z,59.40
2022-10-17T01:04:12.856Z,59.70
2022-10-17T01:04:35.952Z,59.35
2022-10-17T01:04:59.689Z,57.58
2022-10-17T01:05:22.468Z,55.05
2022-10-17T01:05:45.174Z,54.00
2022-10-17T01:06:07.848Z,53.38
2022-10-17T01:06:30.562Z,56.22
2022-10-17T01:06:53.309Z,56.63
2022-10-17T01:07:16.131Z,58.08
2022-10-17T01:07:39.346Z,55.25
2022-10-17T01:08:02.072Z,52.33
2022-10-17T01:08:24.773Z,52.72
2022-10-17T01:08:47.518Z,53.63
2022-10-17T01:09:10.253Z,54.67
2022-10-17T01:09:32.979Z,50.60
2022-10-17T01:09:55.675Z,50.85
2022-10-17T01:10:18.575Z,49.78
2022-10-17T01:10:48.304Z,48.40
2022-10-17T01:11:19.975Z,51.85
2022-10-17T01:11:48.786Z,52.35
2022-10-17T01:12:15.579Z,51.40
2022-10-17T01:12:46.551Z,50.35
2022-10-17T01:13:12.467Z,51.55
2022-10-17T01:13:39.485Z,52.92
2022-10-17T01:14:04.571Z,52.58
2022-10-17T01:14:30.100Z,52.63
2022-10-17T01:15:03.261Z,51.17
2022-10-17T01:15:33.843Z,52.60
2022-10-17T01:16:01.922Z,48.75
2022-10-17T01:16:30.231Z,49.53
2022-10-17T01:16:55.956Z,49.20
2022-10-17T01:17:22.645Z,49.08
2022-10-17T01:17:52.963Z,52.58
2022-10-17T01:18:22.092Z,51.00
2022-10-17T01:18:54.100Z,51.28
2022-10-17T01:19:35.075Z,51.30
2022-10-17T01:20:26.723Z,52.10
2022-10-17T01:21:10.409Z,51.72
2022-10-17T01:21:44.964Z,51.25
2022-10-17T01:22:09.324Z,55.40
2022-10-17T01:22:33.400Z,51.00
2022-10-17T01:22:59.388Z,51.05
2022-10-17T01:23:31.249Z,50.58
2022-10-17T01:24:18.563Z,50.60
2022-10-17T01:25:25.276Z,50.80
2022-10-17T01:25:52.661Z,53.13
2022-10-17T01:26:19.538Z,54.22
2022-10-17T01:27:09.460Z,55.25
2022-10-17T01:27:55.239Z,55.67
2022-10-17T01:28:26.342Z,59.13
2022-10-17T01:29:12.424Z,54.22
2022-10-17T01:29:47.668Z,68.38
2022-10-17T01:30:45.218Z,81.88
2022-10-17T01:31:09.993Z,82.38
2022-10-17T01:31:34.159Z,95.00
2022-10-17T01:31:59.685Z,104.25
2022-10-17T01:32:24.341Z,116.40
2022-10-17T01:32:48.326Z,90.55
2022-10-17T01:33:12.758Z,83.60
2022-10-17T01:33:47.133Z,133.38
2022-10-17T01:34:13.516Z,105.20
2022-10-17T01:34:39.056Z,83.05
2022-10-17T01:35:04.357Z,88.75
2022-10-17T01:35:28.723Z,78.53
2022-10-17T01:35:54.136Z,96.00
2022-10-17T01:36:24.636Z,103.15
2022-10-17T01:36:51.306Z,78.10
2022-10-17T01:37:16.474Z,89.32
2022-10-17T01:37:41.811Z,100.82
2022-10-17T01:38:07.043Z,97.03
2022-10-17T01:38:32.404Z,81.95
2022-10-17T01:38:59.574Z,88.00
2022-10-17T01:39:29.978Z,104.55
2022-10-17T01:39:55.528Z,91.30
2022-10-17T01:40:21.455Z,92.32
2022-10-17T01:40:45.629Z,82.68
2022-10-17T01:41:11.074Z,89.70
2022-10-17T01:41:42.094Z,119.85
2022-10-17T01:42:13.492Z,113.30
2022-10-17T01:42:38.087Z,103.72
2022-10-17T01:43:03.765Z,113.40
2022-10-17T01:43:29.268Z,119.32
2022-10-17T01:43:54.725Z,129.68
2022-10-17T01:44:20.798Z,116.93
2022-10-17T01:44:47.439Z,109.50
2022-10-17T01:45:13.030Z,112.60
2022-10-17T01:45:38.873Z,116.55
2022-10-17T01:46:03.275Z,100.95
2022-10-17T01:46:28.489Z,99.40
2022-10-17T01:46:51.410Z,144.55
2022-10-17T01:47:15.825Z,112.13
2022-10-17T01:47:38.552Z,116.15
2022-10-17T01:48:04.543Z,98.20
2022-10-17T01:48:31.003Z,99.82
2022-10-17T01:48:53.841Z,89.22
2022-10-17T01:49:16.633Z,109.72
2022-10-17T01:49:39.684Z,139.93
2022-10-17T01:50:04.778Z,106.50
2022-10-17T01:50:31.398Z,94.68
2022-10-17T01:50:55.943Z,102.55
2022-10-17T01:51:21.201Z,92.35
2022-10-17T01:51:45.218Z,104.85
2022-10-17T01:52:10.012Z,103.28
2022-10-17T01:52:34.983Z,104.95
2022-10-17T01:52:59.825Z,133.18
2022-10-17T01:53:24.552Z,118.97
2022-10-17T01:53:50.734Z,109.50
2022-10-17T01:54:15.036Z,125.38
2022-10-17T01:54:40.365Z,100.30
2022-10-17T01:55:06.001Z,214.27
2022-10-17T01:55:31.174Z,122.20
2022-10-17T01:55:54.443Z,152.25
2022-10-17T01:56:17.102Z,110.28
2022-10-17T01:56:40.819Z,104.53
2022-10-17T01:57:06.214Z,128.57
2022-10-17T01:57:31.178Z,164.18
2022-10-17T01:57:55.264Z,253.75
2022-10-17T01:58:22.400Z,182.70
2022-10-17T01:58:47.761Z,130.32
2022-10-17T01:59:13.001Z,135.27
2022-10-17T01:59:37.235Z,149.90
2022-10-17T01:59:59.955Z,155.57
2022-10-17T02:00:24.972Z,168.52
2022-10-17T02:00:47.737Z,175.63
2022-10-17T02:01:11.401Z,105.13
2022-10-17T02:01:35.754Z,137.95
2022-10-17T02:01:58.568Z,110.85
2022-10-17T02:02:21.175Z,103.85
2022-10-17T02:02:44.420Z,111.40
2022-10-17T02:03:08.486Z,94.38
2022-10-17T02:03:31.685Z,103.70
2022-10-17T02:03:54.471Z,109.10
2022-10-17T02:04:17.201Z,129.68
2022-10-17T02:04:39.936Z,91.55
2022-10-17T02:05:02.701Z,106.90
2022-10-17T02:05:27.343Z,100.82
2022-10-17T02:05:50.091Z,101.28
2022-10-17T02:06:12.841Z,108.13
2022-10-17T02:06:36.395Z,104.05
2022-10-17T02:07:06.416Z,103.00
2022-10-17T02:07:29.389Z,87.30
2022-10-17T02:07:52.471Z,95.25
2022-10-17T02:08:15.760Z,85.75
2022-10-17T02:08:42.626Z,95.93
2022-10-17T02:09:19.871Z,90.22
2022-10-17T02:09:43.195Z,94.85
2022-10-17T02:10:11.300Z,105.00
2022-10-17T02:10:39.333Z,95.45
2022-10-17T02:11:03.545Z,82.43
2022-10-17T02:11:26.994Z,95.15
2022-10-17T02:12:04.576Z,96.22
2022-10-17T02:12:38.095Z,100.15
2022-10-17T02:13:02.380Z,97.63
2022-10-17T02:13:30.985Z,86.25
2022-10-17T02:14:13.848Z,90.32
2022-10-17T02:14:41.910Z,110.35
2022-10-17T02:15:21.937Z,90.90
2022-10-17T02:15:58.033Z,86.15
2022-10-17T02:16:24.385Z,86.38
2022-10-17T02:16:51.915Z,118.53
2022-10-17T02:17:17.425Z,92.63
2022-10-17T02:17:45.054Z,85.50
2022-10-17T02:18:19.425Z,86.50
2022-10-17T02:18:53.216Z,89.00
2022-10-17T02:19:36.827Z,111.43
2022-10-17T02:20:02.967Z,111.28
2022-10-17T02:20:26.978Z,74.18
2022-10-17T02:20:52.195Z,84.20
2022-10-17T02:21:19.040Z,82.32
2022-10-17T02:21:46.615Z,78.00
2022-10-17T02:22:18.280Z,82.47
2022-10-17T02:22:44.185Z,80.85
2022-10-17T02:23:10.289Z,76.78
2022-10-17T02:23:36.642Z,88.35
2022-10-17T02:24:03.181Z,72.03
2022-10-17T02:24:28.968Z,73.43
2022-10-17T02:24:55.083Z,72.32
2022-10-17T02:25:23.200Z,79.07
2022-10-17T02:25:49.005Z,83.57
2022-10-17T02:26:13.775Z,95.25
2022-10-17T02:26:38.800Z,75.00
2022-10-17T02:27:05.011Z,67.32
2022-10-17T02:27:34.065Z,68.97
2022-10-17T02:27:59.663Z,83.40
2022-10-17T02:28:23.751Z,111.10
2022-10-17T02:28:51.554Z,70.53
2022-10-17T02:29:15.562Z,77.97
2022-10-17T02:29:40.636Z,74.55
2022-10-17T02:30:09.025Z,91.30
2022-10-17T02:30:34.276Z,70.65
2022-10-17T02:31:00.179Z,69.05
2022-10-17T02:31:24.792Z,83.60
2022-10-17T02:31:50.112Z,66.40
2022-10-17T02:32:14.165Z,67.75
2022-10-17T02:32:39.145Z,88.38
2022-10-17T02:33:02.736Z,73.22
2022-10-17T02:33:28.040Z,65.47
2022-10-17T02:33:52.950Z,69.80
2022-10-17T02:34:18.225Z,65.68
2022-10-17T02:34:42.866Z,63.85
2022-10-17T02:35:06.163Z,59.75
2022-10-17T02:35:30.656Z,61.70
2022-10-17T02:35:55.295Z,60.63
2022-10-17T02:36:20.526Z,66.50
2022-10-17T02:36:46.716Z,66.38
2022-10-17T02:37:10.382Z,67.13
2022-10-17T02:37:35.718Z,75.28
2022-10-17T02:37:58.495Z,81.60
2022-10-17T02:38:21.361Z,64.57
2022-10-17T02:38:44.242Z,73.85
2022-10-17T02:39:07.090Z,63.72
2022-10-17T02:39:29.760Z,60.47
2022-10-17T02:39:52.643Z,62.60
2022-10-17T02:40:15.836Z,63.72
2022-10-17T02:40:39.686Z,63.97
2022-10-17T02:41:02.355Z,79.32
2022-10-17T02:41:25.098Z,79.03
2022-10-17T02:41:47.841Z,59.35
2022-10-17T02:42:12.155Z,60.58
2022-10-17T02:42:34.786Z,81.82
2022-10-17T02:42:57.665Z,71.22
2022-10-17T02:43:20.810Z,71.07
2022-10-17T02:43:45.515Z,67.82
2022-10-17T02:44:08.116Z,62.55
2022-10-17T02:44:31.184Z,63.33
2022-10-17T02:44:53.884Z,62.58
2022-10-17T02:45:16.774Z,140.02
2022-10-17T02:45:39.433Z,112.75
2022-10-17T02:46:02.102Z,99.68
2022-10-17T02:46:24.834Z,68.43
2022-10-17T02:46:56.153Z,71.95
2022-10-17T02:47:20.948Z,55.95
2022-10-17T02:47:48.768Z,65.15
2022-10-17T02:48:14.710Z,87.30
2022-10-17T02:48:38.864Z,62.25
2022-10-17T02:49:03.061Z,63.47
2022-10-17T02:49:28.042Z,61.72
2022-10-17T02:49:52.317Z,71.07
2022-10-17T02:50:15.153Z,73.05
2022-10-17T02:50:43.549Z,89.15
2022-10-17T02:51:10.264Z,74.22
2022-10-17T02:51:36.001Z,72.32
2022-10-17T02:52:01.581Z,61.22
2022-10-17T02:52:28.761Z,69.55
2022-10-17T02:52:52.962Z,71.80
2022-10-17T02:53:17.521Z,71.68
2022-10-17T02:53:44.001Z,81.78
2022-10-17T02:54:09.997Z,87.88
2022-10-17T02:54:37.424Z,136.20
2022-10-17T02:55:03.929Z,181.55
2022-10-17T02:55:29.660Z,113.40
2022-10-17T02:55:54.564Z,83.35
2022-10-17T02:56:18.884Z,71.90
2022-10-17T02:56:43.939Z,83.97
2022-10-17T02:57:08.490Z,79.82
2022-10-17T02:57:34.045Z,76.82
2022-10-17T02:57:58.203Z,68.28
2022-10-17T02:58:22.187Z,71.95
2022-10-17T02:58:45.759Z,85.28
2022-10-17T02:59:08.580Z,85.30
2022-10-17T02:59:31.376Z,79.70
2022-10-17T02:59:54.077Z,104.80
2022-10-17T03:00:17.662Z,83.60
2022-10-17T03:00:40.369Z,79.43
2022-10-17T03:01:03.156Z,85.15
2022-10-17T03:01:25.936Z,86.35
2022-10-17T03:01:49.036Z,74.13
2022-10-17T03:02:13.276Z,96.82
2022-10-17T03:02:42.566Z,79.65
2022-10-17T03:03:11.206Z,78.75
2022-10-17T03:03:34.003Z,102.30
2022-10-17T03:04:06.042Z,70.13
2022-10-17T03:04:28.700Z,81.78
2022-10-17T03:04:51.502Z,67.78
2022-10-17T03:05:18.285Z,68.80
2022-10-17T03:05:41.165Z,78.47
2022-10-17T03:06:03.948Z,66.70
2022-10-17T03:06:26.697Z,69.85
2022-10-17T03:06:50.146Z,73.82
2022-10-17T03:07:12.910Z,69.97
2022-10-17T03:07:38.190Z,92.65
2022-10-17T03:08:00.929Z,109.75
2022-10-17T03:08:24.810Z,101.20
2022-10-17T03:08:47.519Z,138.80
2022-10-17T03:09:10.219Z,147.80
2022-10-17T03:09:33.009Z,117.00
2022-10-17T03:09:55.816Z,94.25
2022-10-17T03:10:18.683Z,69.97
2022-10-17T03:10:41.409Z,83.63
2022-10-17T03:11:04.150Z,90.25
2022-10-17T03:11:29.739Z,93.68
2022-10-17T03:11:52.488Z,170.70
2022-10-17T03:12:15.254Z,79.80
2022-10-17T03:12:37.929Z,101.05
2022-10-17T03:13:00.645Z,162.80
2022-10-17T03:13:23.375Z,166.80
2022-10-17T03:13:46.091Z,129.52
2022-10-17T03:14:08.963Z,87.18
2022-10-17T03:14:31.594Z,94.35
2022-10-17T03:14:54.263Z,73.03
2022-10-17T03:15:17.054Z,75.32
2022-10-17T03:15:39.709Z,88.50
2022-10-17T03:16:02.384Z,117.53
2022-10-17T03:16:25.144Z,149.23
2022-10-17T03:16:47.853Z,90.53
2022-10-17T03:17:12.017Z,105.82
2022-10-17T03:17:35.045Z,75.45
2022-10-17T03:17:57.846Z,87.57
2022-10-17T03:18:20.571Z,89.03
2022-10-17T03:18:45.397Z,94.57
2022-10-17T03:19:10.704Z,114.15
2022-10-17T03:19:33.589Z,137.93
2022-10-17T03:19:56.234Z,83.75
2022-10-17T03:20:18.959Z,81.78
2022-10-17T03:20:41.679Z,78.13
2022-10-17T03:21:04.670Z,63.78
2022-10-17T03:21:27.410Z,65.53
2022-10-17T03:21:50.155Z,70.03
2022-10-17T03:22:12.946Z,65.05
2022-10-17T03:22:35.952Z,68.88
2022-10-17T03:23:01.544Z,78.30
2022-10-17T03:23:24.295Z,61.55
2022-10-17T03:23:47.040Z,71.75
2022-10-17T03:24:09.784Z,77.32
2022-10-17T03:24:32.475Z,56.20
2022-10-17T03:24:55.219Z,62.33
2022-10-17T03:25:17.914Z,80.20
2022-10-17T03:25:40.984Z,80.47
2022-10-17T03:26:04.319Z,66.68
2022-10-17T03:26:27.185Z,61.10
2022-10-17T03:26:49.912Z,81.25
2022-10-17T03:27:12.716Z,66.97
2022-10-17T03:27:35.456Z,74.22
2022-10-17T03:27:59.517Z,69.45
2022-10-17T03:28:22.307Z,76.57
2022-10-17T03:28:45.078Z,70.15
2022-10-17T03:29:07.848Z,65.22
2022-10-17T03:29:30.548Z,65.43
2022-10-17T03:29:53.286Z,71.38
2022-10-17T03:30:16.120Z,103.60
2022-10-17T03:30:39.085Z,92.88
2022-10-17T03:31:06.455Z,68.45
2022-10-17T03:31:29.216Z,67.80
2022-10-17T03:31:51.898Z,63.20
2022-10-17T03:32:16.050Z,65.25
2022-10-17T03:32:38.981Z,84.60
2022-10-17T03:33:01.687Z,87.60
2022-10-17T03:33:24.475Z,77.40
2022-10-17T03:33:47.200Z,61.75
2022-10-17T03:34:09.881Z,71.40
2022-10-17T03:34:32.645Z,62.70
2022-10-17T03:34:57.985Z,59.22
2022-10-17T03:35:20.721Z,62.30
2022-10-17T03:35:43.541Z,66.30
2022-10-17T03:36:07.610Z,78.07
2022-10-17T03:36:30.266Z,59.00
2022-10-17T03:36:55.476Z,61.20
2022-10-17T03:37:18.190Z,152.18
2022-10-17T03:37:40.902Z,129.50
2022-10-17T03:38:03.596Z,74.72
2022-10-17T03:38:26.391Z,99.63
2022-10-17T03:38:49.430Z,303.38
2022-10-17T03:39:12.156Z,169.13
2022-10-17T03:39:35.045Z,145.73
2022-10-17T03:39:57.925Z,189.13
2022-10-17T03:40:20.651Z,210.05
2022-10-17T03:40:43.370Z,79.18
2022-10-17T03:41:09.000Z,62.85
2022-10-17T03:41:31.676Z,88.50
2022-10-17T03:41:54.280Z,134.35
2022-10-17T03:42:16.976Z,85.47
2022-10-17T03:42:39.680Z,87.13
2022-10-17T03:43:02.437Z,60.25
2022-10-17T03:43:25.140Z,64.78
2022-10-17T03:43:47.880Z,80.75
2022-10-17T03:44:10.615Z,65.60
2022-10-17T03:44:33.547Z,77.82
2022-10-17T03:44:56.190Z,93.03
2022-10-17T03:45:18.887Z,86.43
2022-10-17T03:45:41.523Z,99.72
2022-10-17T03:46:04.323Z,98.30
2022-10-17T03:46:27.030Z,90.70
2022-10-17T03:46:49.705Z,87.97
2022-10-17T03:47:14.168Z,62.35
2022-10-17T03:47:38.716Z,84.05
2022-10-17T03:48:01.437Z,78.53
2022-10-17T03:48:24.255Z,178.85
2022-10-17T03:48:46.905Z,92.82
2022-10-17T03:49:09.591Z,87.78
2022-10-17T03:49:32.318Z,169.15
2022-10-17T03:49:55.050Z,95.00
2022-10-17T03:50:17.875Z,103.55
2022-10-17T03:50:41.595Z,118.97
2022-10-17T03:51:05.608Z,161.52
2022-10-17T03:51:28.285Z,63.65
2022-10-17T03:51:50.950Z,55.00
2022-10-17T03:52:14.875Z,61.25
2022-10-17T03:52:37.600Z,52.85
2022-10-17T03:53:00.345Z,52.78
2022-10-17T03:53:23.041Z,51.40
2022-10-17T03:53:45.839Z,49.35
2022-10-17T03:54:08.670Z,49.83
2022-10-17T03:54:31.379Z,50.03
2022-10-17T03:54:54.180Z,47.13
2022-10-17T03:55:16.963Z,46.20
2022-10-17T03:55:39.609Z,45.38
2022-10-17T03:56:10.730Z,43.50
2022-10-17T03:56:33.757Z,45.05
2022-10-17T03:57:20.191Z,41.25
2022-10-17T03:57:45.371Z,37.30
2022-10-17T03:58:08.553Z,37.47
2022-10-17T03:58:31.233Z,37.03
2022-10-17T03:58:54.790Z,36.53
2022-10-17T03:59:18.490Z,35.80
2022-10-17T03:59:41.269Z,36.33
2022-10-17T04:00:05.460Z,35.90
2022-10-17T04:00:28.244Z,35.55
2022-10-17T04:00:51.097Z,36.45
2022-10-17T04:01:14.647Z,37.17
2022-10-17T04:01:37.480Z,36.17
2022-10-17T04:02:00.166Z,36.25
2022-10-17T04:02:25.723Z,36.22
2022-10-17T04:02:50.000Z,35.30
2022-10-17T04:03:17.116Z,35.45
2022-10-17T04:03:40.478Z,35.05
2022-10-17T04:04:03.363Z,34.13
2022-10-17T04:04:26.275Z,34.15
2022-10-17T04:04:49.060Z,33.97
2022-10-17T04:05:11.819Z,35.10
2022-10-17T04:05:34.568Z,33.00
2022-10-17T04:06:00.178Z,33.35
2022-10-17T04:06:22.964Z,33.55
2022-10-17T04:06:45.644Z,33.33
2022-10-17T04:07:08.380Z,32.25
2022-10-17T04:07:31.130Z,32.22
2022-10-17T04:07:53.840Z,33.03
2022-10-17T04:08:16.731Z,33.00
2022-10-17T04:08:43.054Z,32.10
2022-10-17T04:09:06.249Z,32.65
2022-10-17T04:09:28.993Z,32.92
2022-10-17T04:09:51.897Z,32.65
2022-10-17T04:10:14.684Z,32.20
2022-10-17T04:10:37.357Z,32.20
2022-10-17T04:11:01.283Z,31.50
2022-10-17T04:11:24.017Z,31.35
2022-10-17T04:11:46.776Z,31.60
2022-10-17T04:12:09.511Z,32.05
2022-10-17T04:12:32.461Z,32.58
2022-10-17T04:12:55.348Z,32.67
2022-10-17T04:13:18.077Z,32.80
2022-10-17T04:13:41.296Z,32.38
2022-10-17T04:14:04.027Z,31.92
2022-10-17T04:14:26.886Z,32.60
2022-10-17T04:14:49.606Z,32.08
2022-10-17T04:15:12.633Z,30.75
2022-10-17T04:15:35.336Z,31.05
2022-10-17T04:15:58.567Z,30.92
2022-10-17T04:16:21.283Z,31.10
2022-10-17T04:16:44.067Z,31.25
2022-10-17T04:17:06.836Z,30.85
2022-10-17T04:17:34.575Z,29.08
2022-10-17T04:18:02.154Z,30.52
2022-10-17T04:18:25.048Z,30.25
2022-10-17T04:18:52.209Z,30.63
2022-10-17T04:19:14.914Z,31.17
2022-10-17T04:19:37.682Z,31.05
2022-10-17T04:20:00.482Z,31.95
2022-10-17T04:20:23.884Z,32.60
2022-10-17T04:20:46.747Z,33.45
2022-10-17T04:21:09.666Z,33.05
2022-10-17T04:21:32.391Z,33.47
2022-10-17T04:21:55.246Z,34.88
2022-10-17T04:22:18.080Z,34.58
2022-10-17T04:22:40.831Z,35.55
2022-10-17T04:23:03.575Z,34.17
2022-10-17T04:23:27.216Z,32.78
2022-10-17T04:23:52.800Z,32.63
2022-10-17T04:24:15.555Z,33.63
2022-10-17T04:24:38.255Z,33.40
2022-10-17T04:25:01.005Z,33.70
2022-10-17T04:25:23.735Z,34.22
2022-10-17T04:25:46.451Z,34.60
2022-10-17T04:26:09.442Z,34.13
2022-10-17T04:26:32.205Z,34.97
2022-10-17T04:26:55.154Z,35.20
2022-10-17T04:27:17.885Z,34.97
2022-10-17T04:27:40.627Z,37.10
2022-10-17T04:28:03.412Z,40.28
2022-10-17T04:28:26.534Z,40.85
2022-10-17T04:28:49.669Z,39.53
2022-10-17T04:29:12.360Z,37.55
2022-10-17T04:29:35.142Z,36.80
2022-10-17T04:29:58.029Z,36.90
2022-10-17T04:30:20.674Z,37.88
2022-10-17T04:30:45.477Z,37.83
2022-10-17T04:31:10.398Z,35.72
2022-10-17T04:31:33.219Z,36.58
2022-10-17T04:31:56.330Z,36.60
2022-10-17T04:32:19.182Z,35.60
2022-10-17T04:32:41.994Z,35.67
2022-10-17T04:33:06.203Z,35.78
2022-10-17T04:33:28.969Z,37.85
2022-10-17T04:33:52.799Z,39.10
2022-10-17T04:34:15.600Z,40.17
2022-10-17T04:34:38.263Z,39.75
2022-10-17T04:35:00.958Z,38.80
2022-10-17T04:35:23.678Z,40.45
2022-10-17T04:35:54.884Z,40.55
2022-10-17T04:36:18.603Z,39.85
2022-10-17T04:36:41.443Z,41.13
2022-10-17T04:37:04.178Z,39.58
2022-10-17T04:37:26.890Z,39.05
2022-10-17T04:37:49.828Z,39.00
2022-10-17T04:38:12.629Z,39.13
2022-10-17T04:38:35.296Z,38.67
2022-10-17T04:38:58.216Z,38.03
2022-10-17T04:39:20.930Z,38.70
2022-10-17T04:39:43.561Z,38.45
2022-10-17T04:40:08.304Z,39.35
2022-10-17T04:40:31.074Z,39.25
2022-10-17T04:40:53.787Z,39.35
2022-10-17T04:41:17.514Z,38.67
2022-10-17T04:41:40.325Z,39.53
2022-10-17T04:42:03.051Z,38.80
2022-10-17T04:42:25.919Z,39.42
2022-10-17T04:42:49.050Z,39.60
2022-10-17T04:43:11.860Z,39.60
2022-10-17T04:43:36.084Z,39.13
2022-10-17T04:44:01.611Z,39.05
2022-10-17T04:44:24.313Z,37.67
2022-10-17T04:44:47.041Z,37.90
2022-10-17T04:45:10.353Z,36.92
2022-10-17T04:45:33.193Z,38.40
2022-10-17T04:45:57.268Z,37.25
2022-10-17T04:46:20.025Z,37.15
2022-10-17T04:46:42.748Z,36.10
2022-10-17T04:47:05.444Z,35.55
2022-10-17T04:47:28.202Z,36.75
2022-10-17T04:47:51.071Z,36.58
2022-10-17T04:48:15.317Z,36.45
2022-10-17T04:48:38.070Z,35.92
2022-10-17T04:49:00.806Z,36.00
2022-10-17T04:49:23.655Z,36.65
2022-10-17T04:49:46.453Z,37.35
2022-10-17T04:50:09.757Z,38.50
2022-10-17T04:50:32.472Z,37.90
2022-10-17T04:50:55.377Z,36.95
2022-10-17T04:51:20.687Z,37.15
2022-10-17T04:51:46.037Z,37.08
2022-10-17T04:52:08.815Z,37.28
2022-10-17T04:52:32.505Z,36.60
2022-10-17T04:52:55.602Z,36.83
2022-10-17T04:53:18.351Z,35.85
2022-10-17T04:53:41.227Z,35.53
2022-10-17T04:54:04.082Z,35.53
2022-10-17T04:54:26.836Z,35.88
2022-10-17T04:54:49.576Z,35.92
2022-10-17T04:55:12.226Z,36.03
2022-10-17T04:55:39.055Z,36.58
2022-10-17T04:56:01.803Z,35.85
2022-10-17T04:56:24.873Z,36.03
2022-10-17T04:56:48.853Z,35.33
2022-10-17T04:57:11.663Z,34.33
2022-10-17T04:57:35.841Z,35.03
2022-10-17T04:57:58.875Z,33.97
2022-10-17T04:58:21.570Z,34.00
2022-10-17T04:58:44.409Z,33.05
2022-10-17T04:59:07.038Z,36.13
2022-10-17T04:59:30.089Z,32.80
2022-10-17T04:59:52.880Z,32.42
2022-10-17T05:00:15.872Z,33.53
2022-10-17T05:00:38.603Z,33.72
2022-10-17T05:01:05.507Z,34.25
2022-10-17T05:01:28.550Z,33.72
2022-10-17T05:01:51.335Z,33.38
2022-10-17T05:02:14.175Z,34.15
2022-10-17T05:02:36.965Z,34.60
2022-10-17T05:02:59.669Z,36.35
2022-10-17T05:03:23.935Z,34.38
2022-10-17T05:03:46.720Z,34.50
2022-10-17T05:04:09.500Z,35.08
2022-10-17T05:04:32.193Z,33.95
2022-10-17T05:04:54.954Z,33.88
2022-10-17T05:05:17.755Z,34.15
2022-10-17T05:05:40.656Z,34.22
2022-10-17T05:06:07.460Z,34.58
2022-10-17T05:06:30.575Z,34.90
2022-10-17T05:06:54.295Z,34.65
2022-10-17T05:07:17.041Z,33.42
2022-10-17T05:07:40.856Z,33.97
2022-10-17T05:08:04.780Z,34.58
2022-10-17T05:08:27.687Z,33.97
2022-10-17T05:08:50.420Z,32.75
2022-10-17T05:09:13.121Z,33.28
2022-10-17T05:09:35.900Z,32.45
2022-10-17T05:09:59.266Z,32.58
2022-10-17T05:10:22.241Z,31.50
2022-10-17T05:10:46.353Z,32.20
2022-10-17T05:11:19.483Z,31.73
2022-10-17T05:11:43.547Z,30.85
2022-10-17T05:12:09.449Z,31.70
2022-10-17T05:12:33.145Z,32.30
2022-10-17T05:12:55.853Z,31.85
2022-10-17T05:13:18.552Z,31.75
2022-10-17T05:13:41.314Z,31.00
2022-10-17T05:14:04.079Z,31.30
2022-10-17T05:14:26.982Z,31.02
2022-10-17T05:14:52.536Z,31.25